sensor_id;sensor_type;location;lat;lon;timestamp;P1;durP1;ratioP1;P2;durP2;ratioP2
3547;SDS011;1788;49.400;11.092;2023-02-27T00:01:44;2.40;;;2.20;;
3547;SDS011;1788;49.400;11.092;2023-02-27T00:04:10;2.30;;;2.10;;
3547;SDS011;1788;49.400;11.092;2023-02-27T00:06:37;2.47;;;2.30;;
3547;SDS011;1788;49.400;11.092;2023-02-27T00:09:04;3.20;;;3.00;;
3547;SDS011;1788;49.400;11.092;2023-02-27T00:11:30;2.67;;;2.47;;
3547;SDS011;1788;49.400;11.092;2023-02-27T00:13:57;2.30;;;2.07;;
3547;SDS011;1788;49.400;11.092;2023-02-27T00:16:23;3.53;;;2.57;;
3547;SDS011;1788;49.400;11.092;2023-02-27T00:18:51;2.50;;;2.30;;
3547;SDS011;1788;49.400;11.092;2023-02-27T00:21:18;4.47;;;3.07;;
3547;SDS011;1788;49.400;11.092;2023-02-27T00:23:45;3.30;;;2.40;;
3547;SDS011;1788;49.400;11.092;2023-02-27T00:26:12;3.03;;;2.63;;
3547;SDS011;1788;49.400;11.092;2023-02-27T00:28:38;2.57;;;2.37;;
3547;SDS011;1788;49.400;11.092;2023-02-27T00:31:05;2.70;;;2.57;;
3547;SDS011;1788;49.400;11.092;2023-02-27T00:33:32;2.47;;;2.27;;
3547;SDS011;1788;49.400;11.092;2023-02-27T00:36:00;3.87;;;2.60;;
3547;SDS011;1788;49.400;11.092;2023-02-27T00:38:26;2.53;;;2.33;;
3547;SDS011;1788;49.400;11.092;2023-02-27T00:40:52;3.37;;;3.00;;
3547;SDS011;1788;49.400;11.092;2023-02-27T00:43:19;2.17;;;2.00;;
3547;SDS011;1788;49.400;11.092;2023-02-27T00:45:46;3.33;;;2.50;;
3547;SDS011;1788;49.400;11.092;2023-02-27T00:48:12;2.83;;;2.63;;
3547;SDS011;1788;49.400;11.092;2023-02-27T00:50:39;3.03;;;2.83;;
3547;SDS011;1788;49.400;11.092;2023-02-27T00:53:06;2.60;;;2.40;;
3547;SDS011;1788;49.400;11.092;2023-02-27T00:55:33;2.60;;;2.40;;
3547;SDS011;1788;49.400;11.092;2023-02-27T00:57:59;2.33;;;2.13;;
3547;SDS011;1788;49.400;11.092;2023-02-27T01:00:26;3.10;;;2.90;;
3547;SDS011;1788;49.400;11.092;2023-02-27T01:02:52;2.83;;;2.63;;
3547;SDS011;1788;49.400;11.092;2023-02-27T01:05:19;2.30;;;2.10;;
3547;SDS011;1788;49.400;11.092;2023-02-27T01:07:46;2.80;;;2.60;;
3547;SDS011;1788;49.400;11.092;2023-02-27T01:10:12;3.17;;;2.80;;
3547;SDS011;1788;49.400;11.092;2023-02-27T01:12:40;3.33;;;2.73;;
3547;SDS011;1788;49.400;11.092;2023-02-27T01:17:33;2.93;;;2.73;;
3547;SDS011;1788;49.400;11.092;2023-02-27T01:19:59;2.63;;;2.43;;
3547;SDS011;1788;49.400;11.092;2023-02-27T01:22:26;6.17;;;2.43;;
3547;SDS011;1788;49.400;11.092;2023-02-27T01:24:53;2.33;;;2.20;;
3547;SDS011;1788;49.400;11.092;2023-02-27T01:27:19;4.87;;;3.03;;
3547;SDS011;1788;49.400;11.092;2023-02-27T01:29:46;6.67;;;3.17;;
3547;SDS011;1788;49.400;11.092;2023-02-27T01:32:13;4.27;;;2.83;;
3547;SDS011;1788;49.400;11.092;2023-02-27T01:34:40;5.60;;;3.47;;
3547;SDS011;1788;49.400;11.092;2023-02-27T01:37:07;5.13;;;3.23;;
3547;SDS011;1788;49.400;11.092;2023-02-27T01:39:34;4.63;;;3.20;;
3547;SDS011;1788;49.400;11.092;2023-02-27T01:42:00;2.57;;;2.33;;
3547;SDS011;1788;49.400;11.092;2023-02-27T01:44:27;2.33;;;2.13;;
3547;SDS011;1788;49.400;11.092;2023-02-27T01:46:53;3.40;;;2.37;;
3547;SDS011;1788;49.400;11.092;2023-02-27T01:51:48;2.20;;;2.00;;
3547;SDS011;1788;49.400;11.092;2023-02-27T01:54:15;2.73;;;2.53;;
3547;SDS011;1788;49.400;11.092;2023-02-27T01:56:41;3.70;;;2.77;;
3547;SDS011;1788;49.400;11.092;2023-02-27T01:59:08;2.50;;;2.30;;
3547;SDS011;1788;49.400;11.092;2023-02-27T02:01:35;3.00;;;2.53;;
3547;SDS011;1788;49.400;11.092;2023-02-27T02:06:29;3.87;;;3.67;;
3547;SDS011;1788;49.400;11.092;2023-02-27T02:08:55;4.07;;;3.33;;
3547;SDS011;1788;49.400;11.092;2023-02-27T02:11:22;4.90;;;3.80;;
3547;SDS011;1788;49.400;11.092;2023-02-27T02:13:49;4.47;;;3.30;;
3547;SDS011;1788;49.400;11.092;2023-02-27T02:18:46;3.40;;;2.70;;
3547;SDS011;1788;49.400;11.092;2023-02-27T02:26:09;4.70;;;2.77;;
3547;SDS011;1788;49.400;11.092;2023-02-27T02:38:25;2.80;;;2.60;;
3547;SDS011;1788;49.400;11.092;2023-02-27T02:43:24;5.53;;;2.70;;
3547;SDS011;1788;49.400;11.092;2023-02-27T02:45:46;3.13;;;2.40;;
3547;SDS011;1788;49.400;11.092;2023-02-27T02:58:01;4.03;;;3.50;;
3547;SDS011;1788;49.400;11.092;2023-02-27T03:00:24;3.47;;;2.90;;
3547;SDS011;1788;49.400;11.092;2023-02-27T03:05:18;4.20;;;3.17;;
3547;SDS011;1788;49.400;11.092;2023-02-27T03:12:38;5.93;;;4.07;;
3547;SDS011;1788;49.400;11.092;2023-02-27T03:17:33;11.93;;;7.83;;
3547;SDS011;1788;49.400;11.092;2023-02-27T03:19:58;4.17;;;3.80;;
3547;SDS011;1788;49.400;11.092;2023-02-27T03:22:29;9.50;;;6.37;;
3547;SDS011;1788;49.400;11.092;2023-02-27T03:24:56;3.57;;;3.37;;
3547;SDS011;1788;49.400;11.092;2023-02-27T03:27:22;6.03;;;3.97;;
3547;SDS011;1788;49.400;11.092;2023-02-27T03:29:49;5.60;;;3.93;;
3547;SDS011;1788;49.400;11.092;2023-02-27T03:32:17;3.40;;;2.87;;
3547;SDS011;1788;49.400;11.092;2023-02-27T03:34:43;2.43;;;2.23;;
3547;SDS011;1788;49.400;11.092;2023-02-27T03:42:09;3.57;;;3.27;;
3547;SDS011;1788;49.400;11.092;2023-02-27T03:44:31;8.60;;;4.10;;
3547;SDS011;1788;49.400;11.092;2023-02-27T03:46:56;5.23;;;3.53;;
3547;SDS011;1788;49.400;11.092;2023-02-27T03:49:23;4.83;;;3.33;;
3547;SDS011;1788;49.400;11.092;2023-02-27T03:51:50;5.10;;;3.83;;
3547;SDS011;1788;49.400;11.092;2023-02-27T03:56:44;5.30;;;3.20;;
3547;SDS011;1788;49.400;11.092;2023-02-27T03:59:11;6.00;;;4.50;;
3547;SDS011;1788;49.400;11.092;2023-02-27T04:01:38;2.80;;;2.60;;
3547;SDS011;1788;49.400;11.092;2023-02-27T04:06:33;2.63;;;2.47;;
3547;SDS011;1788;49.400;11.092;2023-02-27T04:09:02;4.43;;;3.57;;
3547;SDS011;1788;49.400;11.092;2023-02-27T04:13:56;3.30;;;3.10;;
3547;SDS011;1788;49.400;11.092;2023-02-27T04:23:44;3.90;;;3.57;;
3547;SDS011;1788;49.400;11.092;2023-02-27T04:35:55;3.87;;;3.70;;
3547;SDS011;1788;49.400;11.092;2023-02-27T04:43:14;3.17;;;2.97;;
3547;SDS011;1788;49.400;11.092;2023-02-27T04:45:41;3.00;;;2.80;;
3547;SDS011;1788;49.400;11.092;2023-02-27T04:48:09;4.07;;;3.87;;
3547;SDS011;1788;49.400;11.092;2023-02-27T04:50:36;9.97;;;4.60;;
3547;SDS011;1788;49.400;11.092;2023-02-27T04:53:02;4.03;;;3.83;;
3547;SDS011;1788;49.400;11.092;2023-02-27T04:57:58;3.70;;;3.47;;
3547;SDS011;1788;49.400;11.092;2023-02-27T05:00:22;3.53;;;3.20;;
3547;SDS011;1788;49.400;11.092;2023-02-27T05:05:18;3.80;;;3.60;;
3547;SDS011;1788;49.400;11.092;2023-02-27T05:07:44;3.87;;;3.67;;
3547;SDS011;1788;49.400;11.092;2023-02-27T05:15:05;4.70;;;4.40;;
3547;SDS011;1788;49.400;11.092;2023-02-27T05:19:56;4.17;;;3.70;;
3547;SDS011;1788;49.400;11.092;2023-02-27T05:24:52;7.93;;;4.50;;
3547;SDS011;1788;49.400;11.092;2023-02-27T05:39:30;6.97;;;5.30;;
3547;SDS011;1788;49.400;11.092;2023-02-27T05:41:57;4.93;;;4.40;;
3547;SDS011;1788;49.400;11.092;2023-02-27T05:49:17;6.20;;;4.07;;
3547;SDS011;1788;49.400;11.092;2023-02-27T05:51:45;4.53;;;4.23;;
3547;SDS011;1788;49.400;11.092;2023-02-27T05:56:37;6.60;;;4.07;;
3547;SDS011;1788;49.400;11.092;2023-02-27T06:01:31;5.37;;;4.20;;
3547;SDS011;1788;49.400;11.092;2023-02-27T06:03:58;8.50;;;4.37;;
3547;SDS011;1788;49.400;11.092;2023-02-27T06:06:25;4.93;;;4.03;;
3547;SDS011;1788;49.400;11.092;2023-02-27T06:08:51;4.77;;;4.37;;
3547;SDS011;1788;49.400;11.092;2023-02-27T06:11:18;5.73;;;4.23;;
3547;SDS011;1788;49.400;11.092;2023-02-27T06:13:46;4.97;;;3.63;;
3547;SDS011;1788;49.400;11.092;2023-02-27T06:16:13;4.00;;;3.80;;
3547;SDS011;1788;49.400;11.092;2023-02-27T06:18:39;6.73;;;4.77;;
3547;SDS011;1788;49.400;11.092;2023-02-27T06:21:06;3.20;;;3.00;;
3547;SDS011;1788;49.400;11.092;2023-02-27T06:23:33;6.00;;;4.10;;
3547;SDS011;1788;49.400;11.092;2023-02-27T06:26:00;4.27;;;3.13;;
3547;SDS011;1788;49.400;11.092;2023-02-27T06:28:27;3.57;;;3.37;;
3547;SDS011;1788;49.400;11.092;2023-02-27T06:30:54;3.83;;;3.30;;
3547;SDS011;1788;49.400;11.092;2023-02-27T06:33:22;8.80;;;5.20;;
3547;SDS011;1788;49.400;11.092;2023-02-27T06:35:48;3.73;;;3.53;;
3547;SDS011;1788;49.400;11.092;2023-02-27T06:38:14;8.27;;;5.10;;
3547;SDS011;1788;49.400;11.092;2023-02-27T06:40:41;6.03;;;3.70;;
3547;SDS011;1788;49.400;11.092;2023-02-27T06:43:09;5.47;;;4.33;;
3547;SDS011;1788;49.400;11.092;2023-02-27T06:45:36;5.73;;;4.37;;
3547;SDS011;1788;49.400;11.092;2023-02-27T06:48:03;4.17;;;3.93;;
3547;SDS011;1788;49.400;11.092;2023-02-27T06:50:29;4.13;;;3.93;;
3547;SDS011;1788;49.400;11.092;2023-02-27T06:52:57;5.80;;;4.10;;
3547;SDS011;1788;49.400;11.092;2023-02-27T06:55:23;7.47;;;5.23;;
3547;SDS011;1788;49.400;11.092;2023-02-27T06:57:50;9.10;;;4.77;;
3547;SDS011;1788;49.400;11.092;2023-02-27T07:00:17;8.03;;;5.87;;
3547;SDS011;1788;49.400;11.092;2023-02-27T07:02:43;5.77;;;4.70;;
3547;SDS011;1788;49.400;11.092;2023-02-27T07:05:10;6.77;;;4.23;;
3547;SDS011;1788;49.400;11.092;2023-02-27T07:07:36;6.83;;;5.63;;
3547;SDS011;1788;49.400;11.092;2023-02-27T07:10:05;5.53;;;4.20;;
3547;SDS011;1788;49.400;11.092;2023-02-27T07:12:31;7.70;;;4.33;;
3547;SDS011;1788;49.400;11.092;2023-02-27T07:14:57;7.63;;;5.07;;
3547;SDS011;1788;49.400;11.092;2023-02-27T07:17:24;9.97;;;7.17;;
3547;SDS011;1788;49.400;11.092;2023-02-27T07:19:51;6.97;;;5.00;;
3547;SDS011;1788;49.400;11.092;2023-02-27T07:22:17;4.80;;;4.50;;
3547;SDS011;1788;49.400;11.092;2023-02-27T07:24:45;7.67;;;5.37;;
3547;SDS011;1788;49.400;11.092;2023-02-27T07:27:11;5.30;;;4.27;;
3547;SDS011;1788;49.400;11.092;2023-02-27T07:29:38;7.30;;;5.33;;
3547;SDS011;1788;49.400;11.092;2023-02-27T07:32:05;7.90;;;5.00;;
3547;SDS011;1788;49.400;11.092;2023-02-27T07:34:31;7.20;;;4.67;;
3547;SDS011;1788;49.400;11.092;2023-02-27T07:36:58;7.53;;;5.00;;
3547;SDS011;1788;49.400;11.092;2023-02-27T07:39:24;12.27;;;6.30;;
3547;SDS011;1788;49.400;11.092;2023-02-27T07:41:51;10.07;;;6.03;;
3547;SDS011;1788;49.400;11.092;2023-02-27T07:44:18;9.17;;;5.97;;
3547;SDS011;1788;49.400;11.092;2023-02-27T07:46:46;4.80;;;4.17;;
3547;SDS011;1788;49.400;11.092;2023-02-27T07:49:12;6.30;;;4.73;;
3547;SDS011;1788;49.400;11.092;2023-02-27T07:51:40;5.23;;;3.87;;
3547;SDS011;1788;49.400;11.092;2023-02-27T07:54:07;5.57;;;3.80;;
3547;SDS011;1788;49.400;11.092;2023-02-27T07:56:34;5.47;;;3.67;;
3547;SDS011;1788;49.400;11.092;2023-02-27T07:59:02;6.23;;;4.47;;
3547;SDS011;1788;49.400;11.092;2023-02-27T08:01:29;6.10;;;4.23;;
3547;SDS011;1788;49.400;11.092;2023-02-27T08:03:56;5.13;;;4.40;;
3547;SDS011;1788;49.400;11.092;2023-02-27T08:06:22;7.93;;;4.73;;
3547;SDS011;1788;49.400;11.092;2023-02-27T08:08:50;8.30;;;3.57;;
3547;SDS011;1788;49.400;11.092;2023-02-27T08:11:16;12.43;;;6.20;;
3547;SDS011;1788;49.400;11.092;2023-02-27T08:13:42;6.10;;;4.43;;
3547;SDS011;1788;49.400;11.092;2023-02-27T08:16:10;6.40;;;3.90;;
3547;SDS011;1788;49.400;11.092;2023-02-27T08:18:36;7.37;;;4.10;;
3547;SDS011;1788;49.400;11.092;2023-02-27T08:21:03;3.87;;;3.17;;
3547;SDS011;1788;49.400;11.092;2023-02-27T08:23:30;9.23;;;5.60;;
3547;SDS011;1788;49.400;11.092;2023-02-27T08:25:56;5.77;;;4.10;;
3547;SDS011;1788;49.400;11.092;2023-02-27T08:28:23;4.77;;;3.90;;
3547;SDS011;1788;49.400;11.092;2023-02-27T08:30:49;8.50;;;4.50;;
3547;SDS011;1788;49.400;11.092;2023-02-27T08:33:16;12.60;;;5.60;;
3547;SDS011;1788;49.400;11.092;2023-02-27T08:35:43;4.10;;;2.90;;
3547;SDS011;1788;49.400;11.092;2023-02-27T08:38:10;5.67;;;3.30;;
3547;SDS011;1788;49.400;11.092;2023-02-27T08:40:36;4.50;;;3.57;;
3547;SDS011;1788;49.400;11.092;2023-02-27T08:43:03;3.87;;;3.70;;
3547;SDS011;1788;49.400;11.092;2023-02-27T08:45:30;4.30;;;2.93;;
3547;SDS011;1788;49.400;11.092;2023-02-27T08:47:56;3.20;;;2.60;;
3547;SDS011;1788;49.400;11.092;2023-02-27T08:50:23;5.67;;;2.80;;
3547;SDS011;1788;49.400;11.092;2023-02-27T08:52:49;4.97;;;3.13;;
3547;SDS011;1788;49.400;11.092;2023-02-27T08:55:18;4.77;;;3.70;;
3547;SDS011;1788;49.400;11.092;2023-02-27T08:57:44;3.90;;;3.47;;
3547;SDS011;1788;49.400;11.092;2023-02-27T09:00:11;2.90;;;2.70;;
3547;SDS011;1788;49.400;11.092;2023-02-27T09:02:37;4.93;;;2.70;;
3547;SDS011;1788;49.400;11.092;2023-02-27T09:05:04;4.23;;;4.00;;
3547;SDS011;1788;49.400;11.092;2023-02-27T09:07:31;2.53;;;2.33;;
3547;SDS011;1788;49.400;11.092;2023-02-27T09:09:58;2.83;;;2.63;;
3547;SDS011;1788;49.400;11.092;2023-02-27T09:12:25;4.37;;;2.37;;
3547;SDS011;1788;49.400;11.092;2023-02-27T09:14:51;3.47;;;2.47;;
3547;SDS011;1788;49.400;11.092;2023-02-27T09:17:18;2.50;;;2.30;;
3547;SDS011;1788;49.400;11.092;2023-02-27T09:19:44;6.23;;;3.00;;
3547;SDS011;1788;49.400;11.092;2023-02-27T09:22:11;3.63;;;2.30;;
3547;SDS011;1788;49.400;11.092;2023-02-27T09:24:38;1.83;;;1.77;;
3547;SDS011;1788;49.400;11.092;2023-02-27T09:27:04;3.90;;;2.57;;
3547;SDS011;1788;49.400;11.092;2023-02-27T09:29:32;3.03;;;2.33;;
3547;SDS011;1788;49.400;11.092;2023-02-27T09:31:58;6.70;;;2.97;;
3547;SDS011;1788;49.400;11.092;2023-02-27T09:34:25;2.33;;;2.13;;
3547;SDS011;1788;49.400;11.092;2023-02-27T09:36:51;2.60;;;2.40;;
3547;SDS011;1788;49.400;11.092;2023-02-27T09:39:18;4.37;;;2.10;;
3547;SDS011;1788;49.400;11.092;2023-02-27T09:41:47;1.80;;;1.70;;
3547;SDS011;1788;49.400;11.092;2023-02-27T09:46:38;3.87;;;3.33;;
3547;SDS011;1788;49.400;11.092;2023-02-27T09:49:05;5.03;;;3.60;;
3547;SDS011;1788;49.400;11.092;2023-02-27T09:51:32;4.90;;;3.47;;
3547;SDS011;1788;49.400;11.092;2023-02-27T09:53:59;5.83;;;3.40;;
3547;SDS011;1788;49.400;11.092;2023-02-27T09:56:26;3.43;;;2.67;;
3547;SDS011;1788;49.400;11.092;2023-02-27T10:11:06;4.83;;;2.40;;
3547;SDS011;1788;49.400;11.092;2023-02-27T10:15:59;5.13;;;3.17;;
3547;SDS011;1788;49.400;11.092;2023-02-27T10:20:55;3.47;;;2.43;;
3547;SDS011;1788;49.400;11.092;2023-02-27T10:23:21;2.83;;;2.53;;
3547;SDS011;1788;49.400;11.092;2023-02-27T10:25:47;3.60;;;2.20;;
3547;SDS011;1788;49.400;11.092;2023-02-27T10:28:15;5.93;;;4.17;;
3547;SDS011;1788;49.400;11.092;2023-02-27T10:30:40;3.00;;;2.80;;
3547;SDS011;1788;49.400;11.092;2023-02-27T10:33:08;3.47;;;2.10;;
3547;SDS011;1788;49.400;11.092;2023-02-27T10:35:34;2.50;;;2.33;;
3547;SDS011;1788;49.400;11.092;2023-02-27T10:38:01;4.07;;;2.57;;
3547;SDS011;1788;49.400;11.092;2023-02-27T10:40:26;2.67;;;2.00;;
3547;SDS011;1788;49.400;11.092;2023-02-27T10:42:53;2.47;;;2.10;;
3547;SDS011;1788;49.400;11.092;2023-02-27T10:45:19;2.87;;;2.43;;
3547;SDS011;1788;49.400;11.092;2023-02-27T10:47:47;2.67;;;2.03;;
3547;SDS011;1788;49.400;11.092;2023-02-27T10:50:22;3.70;;;2.70;;
3547;SDS011;1788;49.400;11.092;2023-02-27T10:55:15;6.50;;;3.93;;
3547;SDS011;1788;49.400;11.092;2023-02-27T11:00:02;3.70;;;2.57;;
3547;SDS011;1788;49.400;11.092;2023-02-27T11:02:30;2.30;;;2.10;;
3547;SDS011;1788;49.400;11.092;2023-02-27T11:04:54;3.53;;;2.33;;
3547;SDS011;1788;49.400;11.092;2023-02-27T11:09:57;3.47;;;2.60;;
3547;SDS011;1788;49.400;11.092;2023-02-27T11:17:08;13.40;;;6.50;;
3547;SDS011;1788;49.400;11.092;2023-02-27T11:19:36;12.63;;;6.80;;
3547;SDS011;1788;49.400;11.092;2023-02-27T11:22:02;7.43;;;3.70;;
3547;SDS011;1788;49.400;11.092;2023-02-27T11:24:28;2.77;;;2.57;;
3547;SDS011;1788;49.400;11.092;2023-02-27T11:26:56;3.23;;;2.47;;
3547;SDS011;1788;49.400;11.092;2023-02-27T11:29:21;6.57;;;4.33;;
3547;SDS011;1788;49.400;11.092;2023-02-27T11:39:15;4.53;;;3.87;;
3547;SDS011;1788;49.400;11.092;2023-02-27T11:41:34;8.57;;;4.97;;
3547;SDS011;1788;49.400;11.092;2023-02-27T11:44:01;7.07;;;3.93;;
3547;SDS011;1788;49.400;11.092;2023-02-27T11:46:28;6.80;;;4.20;;
3547;SDS011;1788;49.400;11.092;2023-02-27T11:56:16;4.20;;;2.97;;
3547;SDS011;1788;49.400;11.092;2023-02-27T11:58:45;3.93;;;3.10;;
3547;SDS011;1788;49.400;11.092;2023-02-27T12:01:14;6.10;;;4.67;;
3547;SDS011;1788;49.400;11.092;2023-02-27T12:03:39;3.67;;;3.50;;
3547;SDS011;1788;49.400;11.092;2023-02-27T12:06:03;2.47;;;2.00;;
3547;SDS011;1788;49.400;11.092;2023-02-27T12:10:57;4.77;;;3.33;;
3547;SDS011;1788;49.400;11.092;2023-02-27T12:15:52;3.80;;;3.03;;
3547;SDS011;1788;49.400;11.092;2023-02-27T12:25:40;11.63;;;6.30;;
3547;SDS011;1788;49.400;11.092;2023-02-27T12:30:33;2.50;;;2.10;;
3547;SDS011;1788;49.400;11.092;2023-02-27T12:37:50;3.80;;;1.90;;
3547;SDS011;1788;49.400;11.092;2023-02-27T12:40:17;2.23;;;2.03;;
3547;SDS011;1788;49.400;11.092;2023-02-27T13:04:45;4.00;;;2.30;;
3547;SDS011;1788;49.400;11.092;2023-02-27T13:09:40;5.73;;;4.20;;
3547;SDS011;1788;49.400;11.092;2023-02-27T13:17:00;5.50;;;2.97;;
3547;SDS011;1788;49.400;11.092;2023-02-27T13:21:53;5.80;;;3.67;;
3547;SDS011;1788;49.400;11.092;2023-02-27T13:24:26;2.47;;;1.60;;
3547;SDS011;1788;49.400;11.092;2023-02-27T13:38:58;2.43;;;2.23;;
3547;SDS011;1788;49.400;11.092;2023-02-27T13:41:33;3.10;;;2.40;;
3547;SDS011;1788;49.400;11.092;2023-02-27T13:48:46;3.83;;;3.23;;
3547;SDS011;1788;49.400;11.092;2023-02-27T13:53:38;8.27;;;4.63;;
3547;SDS011;1788;49.400;11.092;2023-02-27T13:58:31;11.17;;;7.70;;
3547;SDS011;1788;49.400;11.092;2023-02-27T14:00:58;8.43;;;4.13;;
3547;SDS011;1788;49.400;11.092;2023-02-27T14:03:25;2.50;;;2.30;;
3547;SDS011;1788;49.400;11.092;2023-02-27T14:05:53;4.37;;;2.87;;
3547;SDS011;1788;49.400;11.092;2023-02-27T14:08:20;3.87;;;3.47;;
3547;SDS011;1788;49.400;11.092;2023-02-27T14:18:07;8.13;;;4.50;;
3547;SDS011;1788;49.400;11.092;2023-02-27T14:32:45;1.90;;;1.77;;
3547;SDS011;1788;49.400;11.092;2023-02-27T14:35:13;4.17;;;2.33;;
3547;SDS011;1788;49.400;11.092;2023-02-27T14:37:39;4.17;;;3.13;;
3547;SDS011;1788;49.400;11.092;2023-02-27T14:40:05;5.77;;;3.97;;
3547;SDS011;1788;49.400;11.092;2023-02-27T14:42:37;7.93;;;4.80;;
3547;SDS011;1788;49.400;11.092;2023-02-27T14:44:59;5.07;;;2.87;;
3547;SDS011;1788;49.400;11.092;2023-02-27T14:49:52;4.80;;;4.07;;
3547;SDS011;1788;49.400;11.092;2023-02-27T14:52:20;3.80;;;2.83;;
3547;SDS011;1788;49.400;11.092;2023-02-27T14:54:46;15.17;;;7.67;;
3547;SDS011;1788;49.400;11.092;2023-02-27T15:04:32;6.77;;;4.63;;
3547;SDS011;1788;49.400;11.092;2023-02-27T15:06:59;9.17;;;6.17;;
3547;SDS011;1788;49.400;11.092;2023-02-27T15:11:52;3.57;;;3.00;;
3547;SDS011;1788;49.400;11.092;2023-02-27T15:16:45;3.40;;;2.57;;
3547;SDS011;1788;49.400;11.092;2023-02-27T15:19:13;6.70;;;5.30;;
3547;SDS011;1788;49.400;11.092;2023-02-27T15:21:40;27.10;;;13.17;;
3547;SDS011;1788;49.400;11.092;2023-02-27T15:24:05;2.50;;;2.30;;
3547;SDS011;1788;49.400;11.092;2023-02-27T15:28:59;5.17;;;4.00;;
3547;SDS011;1788;49.400;11.092;2023-02-27T15:31:26;5.30;;;3.90;;
3547;SDS011;1788;49.400;11.092;2023-02-27T15:33:52;15.27;;;8.40;;
3547;SDS011;1788;49.400;11.092;2023-02-27T15:36:20;5.87;;;3.90;;
3547;SDS011;1788;49.400;11.092;2023-02-27T15:38:46;10.27;;;6.07;;
3547;SDS011;1788;49.400;11.092;2023-02-27T15:41:13;5.40;;;4.03;;
3547;SDS011;1788;49.400;11.092;2023-02-27T15:43:39;3.83;;;3.70;;
3547;SDS011;1788;49.400;11.092;2023-02-27T15:46:06;5.67;;;4.03;;
3547;SDS011;1788;49.400;11.092;2023-02-27T15:48:32;14.97;;;7.77;;
3547;SDS011;1788;49.400;11.092;2023-02-27T15:51:01;2.87;;;2.77;;
3547;SDS011;1788;49.400;11.092;2023-02-27T15:53:27;10.40;;;6.23;;
3547;SDS011;1788;49.400;11.092;2023-02-27T15:55:55;17.93;;;10.97;;
3547;SDS011;1788;49.400;11.092;2023-02-27T16:00:47;11.30;;;8.13;;
3547;SDS011;1788;49.400;11.092;2023-02-27T16:03:15;7.97;;;4.90;;
3547;SDS011;1788;49.400;11.092;2023-02-27T16:05:40;9.37;;;4.80;;
3547;SDS011;1788;49.400;11.092;2023-02-27T16:08:12;11.37;;;7.20;;
3547;SDS011;1788;49.400;11.092;2023-02-27T16:10:35;4.27;;;2.50;;
3547;SDS011;1788;49.400;11.092;2023-02-27T16:15:28;3.37;;;2.60;;
3547;SDS011;1788;49.400;11.092;2023-02-27T16:20:27;2.90;;;2.70;;
3547;SDS011;1788;49.400;11.092;2023-02-27T16:25:16;3.60;;;2.87;;
3547;SDS011;1788;49.400;11.092;2023-02-27T16:27:41;5.23;;;3.50;;
3547;SDS011;1788;49.400;11.092;2023-02-27T16:30:09;6.60;;;5.10;;
3547;SDS011;1788;49.400;11.092;2023-02-27T16:32:36;8.20;;;5.03;;
3547;SDS011;1788;49.400;11.092;2023-02-27T16:37:30;8.80;;;5.40;;
3547;SDS011;1788;49.400;11.092;2023-02-27T16:39:54;4.93;;;3.50;;
3547;SDS011;1788;49.400;11.092;2023-02-27T16:42:21;5.73;;;4.13;;
3547;SDS011;1788;49.400;11.092;2023-02-27T16:44:48;6.67;;;4.33;;
3547;SDS011;1788;49.400;11.092;2023-02-27T16:47:15;13.30;;;7.30;;
3547;SDS011;1788;49.400;11.092;2023-02-27T16:49:42;12.27;;;7.50;;
3547;SDS011;1788;49.400;11.092;2023-02-27T16:54:35;36.10;;;17.00;;
3547;SDS011;1788;49.400;11.092;2023-02-27T16:57:02;16.07;;;8.00;;
3547;SDS011;1788;49.400;11.092;2023-02-27T16:59:30;16.43;;;8.83;;
3547;SDS011;1788;49.400;11.092;2023-02-27T17:01:57;29.47;;;15.60;;
3547;SDS011;1788;49.400;11.092;2023-02-27T17:04:23;21.83;;;11.77;;
3547;SDS011;1788;49.400;11.092;2023-02-27T17:06:50;14.90;;;8.03;;
3547;SDS011;1788;49.400;11.092;2023-02-27T17:09:16;9.73;;;5.77;;
3547;SDS011;1788;49.400;11.092;2023-02-27T17:11:43;8.33;;;5.17;;
3547;SDS011;1788;49.400;11.092;2023-02-27T17:14:09;5.33;;;3.93;;
3547;SDS011;1788;49.400;11.092;2023-02-27T17:16:37;5.67;;;3.73;;
3547;SDS011;1788;49.400;11.092;2023-02-27T17:19:03;4.53;;;3.90;;
3547;SDS011;1788;49.400;11.092;2023-02-27T17:21:31;4.73;;;3.83;;
3547;SDS011;1788;49.400;11.092;2023-02-27T17:23:57;3.40;;;3.23;;
3547;SDS011;1788;49.400;11.092;2023-02-27T17:26:25;4.77;;;3.80;;
3547;SDS011;1788;49.400;11.092;2023-02-27T17:28:53;6.33;;;3.37;;
3547;SDS011;1788;49.400;11.092;2023-02-27T17:31:19;4.37;;;4.07;;
3547;SDS011;1788;49.400;11.092;2023-02-27T17:33:46;5.33;;;3.93;;
3547;SDS011;1788;49.400;11.092;2023-02-27T17:36:12;5.37;;;4.53;;
3547;SDS011;1788;49.400;11.092;2023-02-27T17:38:39;6.87;;;5.10;;
3547;SDS011;1788;49.400;11.092;2023-02-27T17:41:06;21.37;;;10.93;;
3547;SDS011;1788;49.400;11.092;2023-02-27T17:43:32;21.33;;;11.40;;
3547;SDS011;1788;49.400;11.092;2023-02-27T17:45:59;12.57;;;6.83;;
3547;SDS011;1788;49.400;11.092;2023-02-27T17:48:26;8.07;;;5.23;;
3547;SDS011;1788;49.400;11.092;2023-02-27T17:50:53;8.70;;;6.13;;
3547;SDS011;1788;49.400;11.092;2023-02-27T17:53:19;9.87;;;6.97;;
3547;SDS011;1788;49.400;11.092;2023-02-27T17:55:46;19.13;;;10.03;;
3547;SDS011;1788;49.400;11.092;2023-02-27T17:58:13;24.73;;;14.40;;
3547;SDS011;1788;49.400;11.092;2023-02-27T18:00:39;53.97;;;22.90;;
3547;SDS011;1788;49.400;11.092;2023-02-27T18:03:06;22.77;;;10.37;;
3547;SDS011;1788;49.400;11.092;2023-02-27T18:05:32;18.37;;;9.53;;
3547;SDS011;1788;49.400;11.092;2023-02-27T18:07:59;14.77;;;9.37;;
3547;SDS011;1788;49.400;11.092;2023-02-27T18:10:26;47.00;;;23.97;;
3547;SDS011;1788;49.400;11.092;2023-02-27T18:12:53;50.90;;;26.37;;
3547;SDS011;1788;49.400;11.092;2023-02-27T18:15:20;35.13;;;20.10;;
3547;SDS011;1788;49.400;11.092;2023-02-27T18:17:47;38.07;;;20.53;;
3547;SDS011;1788;49.400;11.092;2023-02-27T18:20:14;31.57;;;18.27;;
3547;SDS011;1788;49.400;11.092;2023-02-27T18:22:41;33.57;;;19.00;;
3547;SDS011;1788;49.400;11.092;2023-02-27T18:25:07;24.87;;;11.70;;
3547;SDS011;1788;49.400;11.092;2023-02-27T18:27:34;9.03;;;5.10;;
3547;SDS011;1788;49.400;11.092;2023-02-27T18:30:01;4.07;;;3.87;;
3547;SDS011;1788;49.400;11.092;2023-02-27T18:32:28;5.63;;;3.67;;
3547;SDS011;1788;49.400;11.092;2023-02-27T18:34:54;6.10;;;4.23;;
3547;SDS011;1788;49.400;11.092;2023-02-27T18:37:21;5.03;;;4.03;;
3547;SDS011;1788;49.400;11.092;2023-02-27T18:39:48;8.37;;;4.97;;
3547;SDS011;1788;49.400;11.092;2023-02-27T18:42:14;15.20;;;8.57;;
3547;SDS011;1788;49.400;11.092;2023-02-27T18:44:41;13.83;;;8.33;;
3547;SDS011;1788;49.400;11.092;2023-02-27T18:47:08;14.53;;;9.43;;
3547;SDS011;1788;49.400;11.092;2023-02-27T18:49:35;17.50;;;10.20;;
3547;SDS011;1788;49.400;11.092;2023-02-27T18:52:01;23.03;;;13.57;;
3547;SDS011;1788;49.400;11.092;2023-02-27T18:54:29;20.67;;;13.40;;
3547;SDS011;1788;49.400;11.092;2023-02-27T18:56:55;23.93;;;12.57;;
3547;SDS011;1788;49.400;11.092;2023-02-27T18:59:23;22.93;;;13.80;;
3547;SDS011;1788;49.400;11.092;2023-02-27T19:01:49;37.03;;;18.90;;
3547;SDS011;1788;49.400;11.092;2023-02-27T19:04:16;32.93;;;18.17;;
3547;SDS011;1788;49.400;11.092;2023-02-27T19:06:43;30.80;;;17.47;;
3547;SDS011;1788;49.400;11.092;2023-02-27T19:09:10;17.57;;;10.37;;
3547;SDS011;1788;49.400;11.092;2023-02-27T19:11:37;13.67;;;8.90;;
3547;SDS011;1788;49.400;11.092;2023-02-27T19:14:06;20.67;;;12.40;;
3547;SDS011;1788;49.400;11.092;2023-02-27T19:16:31;17.37;;;11.57;;
3547;SDS011;1788;49.400;11.092;2023-02-27T19:18:58;22.50;;;14.77;;
3547;SDS011;1788;49.400;11.092;2023-02-27T19:21:25;35.17;;;18.17;;
3547;SDS011;1788;49.400;11.092;2023-02-27T19:23:51;35.63;;;21.60;;
3547;SDS011;1788;49.400;11.092;2023-02-27T19:26:18;26.80;;;18.67;;
3547;SDS011;1788;49.400;11.092;2023-02-27T19:28:45;43.87;;;23.50;;
3547;SDS011;1788;49.400;11.092;2023-02-27T19:31:12;33.73;;;21.97;;
3547;SDS011;1788;49.400;11.092;2023-02-27T19:33:38;38.77;;;22.47;;
3547;SDS011;1788;49.400;11.092;2023-02-27T19:36:06;33.60;;;17.27;;
3547;SDS011;1788;49.400;11.092;2023-02-27T19:38:32;30.73;;;16.30;;
3547;SDS011;1788;49.400;11.092;2023-02-27T19:41:00;53.83;;;27.37;;
3547;SDS011;1788;49.400;11.092;2023-02-27T19:43:26;33.73;;;18.40;;